createdAt,value
2023-05-12T00:02:17.563Z,100733.00
2023-05-12T00:04:44.303Z,100723.78
2023-05-12T00:07:10.972Z,100716.00
2023-05-12T00:09:37.758Z,100726.69
2023-05-12T00:12:04.680Z,100722.91
2023-05-12T00:14:31.274Z,100728.09
2023-05-12T00:16:57.806Z,100724.50
2023-05-12T00:19:24.452Z,100722.31
2023-05-12T00:21:50.992Z,100721.88
2023-05-12T00:24:17.515Z,100719.41
2023-05-12T00:26:44.133Z,100722.91
2023-05-12T00:29:10.668Z,100730.25
2023-05-12T00:31:37.229Z,100721.06
2023-05-12T00:34:03.825Z,100722.31
2023-05-12T00:36:30.476Z,100724.84
2023-05-12T00:38:57.157Z,100731.88
2023-05-12T00:41:24.297Z,100735.19
2023-05-12T00:43:50.906Z,100739.13
2023-05-12T00:46:18.043Z,100729.00
2023-05-12T00:48:46.193Z,100738.50
2023-05-12T00:51:13.439Z,100739.50
2023-05-12T00:53:48.400Z,100737.91
2023-05-12T00:56:18.978Z,100737.91
2023-05-12T00:58:47.520Z,100735.94
2023-05-12T01:01:15.362Z,100740.41
2023-05-12T01:03:43.496Z,100743.44
2023-05-12T01:06:13.788Z,100745.06
2023-05-12T01:08:42.102Z,100738.59
2023-05-12T01:11:09.800Z,100740.06
2023-05-12T01:13:37.565Z,100743.25
2023-05-12T01:16:07.508Z,100744.56
2023-05-12T01:18:37.769Z,100749.13
2023-05-12T01:21:07.084Z,100748.06
2023-05-12T01:23:40.156Z,100743.25
2023-05-12T01:26:07.833Z,100743.16
2023-05-12T01:28:37.568Z,100748.72
2023-05-12T01:31:07.926Z,100744.09
2023-05-12T01:33:38.319Z,100750.31
2023-05-12T01:36:05.653Z,100744.84
2023-05-12T01:38:32.980Z,100748.53
2023-05-12T01:40:59.668Z,100747.75
2023-05-12T01:43:26.209Z,100750.13
2023-05-12T01:45:52.975Z,100754.03
2023-05-12T01:48:19.597Z,100748.53
2023-05-12T01:50:46.501Z,100758.38
2023-05-12T01:53:18.696Z,100754.66
2023-05-12T01:55:45.612Z,100763.81
2023-05-12T01:58:13.521Z,100762.84
2023-05-12T02:00:40.121Z,100754.94
2023-05-12T02:03:12.990Z,100754.47
2023-05-12T02:05:39.598Z,100756.78
2023-05-12T02:08:07.192Z,100754.19
2023-05-12T02:10:33.778Z,100756.22
2023-05-12T02:13:00.354Z,100758.53
2023-05-12T02:15:27.684Z,100762.38
2023-05-12T02:17:55.539Z,100771.75
2023-05-12T02:20:23.511Z,100772.78
2023-05-12T02:22:50.192Z,100775.44
2023-05-12T02:25:16.909Z,100771.50
2023-05-12T02:27:45.004Z,100780.81
2023-05-12T02:30:12.048Z,100781.09
2023-05-12T02:32:38.654Z,100769.38
2023-05-12T02:35:07.483Z,100776.63
2023-05-12T02:37:34.766Z,100775.03
2023-05-12T02:40:01.322Z,100771.38
2023-05-12T02:42:33.651Z,100772.81
2023-05-12T02:45:00.303Z,100784.34
2023-05-12T02:47:26.858Z,100781.00
2023-05-12T02:49:55.485Z,100783.28
2023-05-12T02:52:22.510Z,100782.44
2023-05-12T02:54:49.181Z,100790.38
2023-05-12T02:57:15.776Z,100797.75
2023-05-12T02:59:42.381Z,100807.06
2023-05-12T03:02:09.075Z,100800.28
2023-05-12T03:04:36.872Z,100793.78
2023-05-12T03:07:03.941Z,100803.78
2023-05-12T03:09:30.805Z,100804.91
2023-05-12T03:11:57.535Z,100812.25
2023-05-12T03:14:26.106Z,100813.94
2023-05-12T03:16:52.738Z,100814.03
2023-05-12T03:19:19.337Z,100807.88
2023-05-12T03:21:46.027Z,100811.84
2023-05-12T03:24:12.562Z,100813.03
2023-05-12T03:26:39.147Z,100810.97
2023-05-12T03:29:05.709Z,100820.94
2023-05-12T03:31:32.599Z,100823.09
2023-05-12T03:33:59.404Z,100820.16
2023-05-12T03:36:26.584Z,100817.31
2023-05-12T03:38:53.172Z,100813.19
2023-05-12T03:41:19.754Z,100815.97
2023-05-12T03:43:46.544Z,100813.59
2023-05-12T03:46:13.703Z,100817.75
2023-05-12T03:48:40.352Z,100813.47
2023-05-12T03:51:07.197Z,100824.03
2023-05-12T03:53:33.794Z,100826.84
2023-05-12T03:56:05.062Z,100827.50
2023-05-12T03:58:32.729Z,100817.25
2023-05-12T04:01:01.438Z,100824.13
2023-05-12T04:03:28.901Z,100834.59
2023-05-12T04:06:00.104Z,100831.34
2023-05-12T04:08:27.337Z,100827.44
2023-05-12T04:10:58.630Z,100829.94
2023-05-12T04:13:25.913Z,100841.28
2023-05-12T04:15:56.727Z,100842.94
2023-05-12T04:18:24.819Z,100846.69
2023-05-12T04:20:51.786Z,100844.84
2023-05-12T04:23:18.444Z,100846.09
2023-05-12T04:25:46.264Z,100838.25
2023-05-12T04:28:13.031Z,100850.28
2023-05-12T04:30:41.976Z,100835.53
2023-05-12T04:33:09.952Z,100843.75
2023-05-12T04:35:37.506Z,100841.25
2023-05-12T04:38:04.756Z,100837.50
2023-05-12T04:40:34.035Z,100840.84
2023-05-12T04:43:01.575Z,100845.81
2023-05-12T04:45:30.158Z,100849.06
2023-05-12T04:47:56.772Z,100852.13
2023-05-12T04:50:23.699Z,100849.25
2023-05-12T04:52:50.310Z,100848.56
2023-05-12T04:55:17.014Z,100844.78
2023-05-12T04:57:44.267Z,100858.56
2023-05-12T05:00:11.847Z,100859.09
2023-05-12T05:02:39.084Z,100860.44
2023-05-12T05:05:06.490Z,100872.28
2023-05-12T05:07:33.074Z,100869.19
2023-05-12T05:10:00.047Z,100883.88
2023-05-12T05:12:26.713Z,100874.63
2023-05-12T05:14:54.334Z,100876.34
2023-05-12T05:17:20.927Z,100883.88
2023-05-12T05:19:57.333Z,100888.00
2023-05-12T05:22:27.832Z,100899.25
2023-05-12T05:24:54.828Z,100904.19
2023-05-12T05:27:21.410Z,100911.34
2023-05-12T05:29:48.169Z,100908.97
2023-05-12T05:32:14.887Z,100908.72
2023-05-12T05:34:43.243Z,100911.88
2023-05-12T05:37:10.912Z,100920.78
2023-05-12T05:39:38.064Z,100916.72
2023-05-12T05:42:04.818Z,100909.97
2023-05-12T05:44:31.845Z,100902.72
2023-05-12T05:46:59.530Z,100901.97
2023-05-12T05:49:27.275Z,100926.84
2023-05-12T05:51:55.264Z,100926.88
2023-05-12T05:54:25.468Z,100928.69
2023-05-12T05:56:52.232Z,100935.34
2023-05-12T05:59:18.864Z,100936.91
2023-05-12T06:01:45.977Z,100948.53
2023-05-12T06:04:12.676Z,100944.59
2023-05-12T06:06:39.324Z,100941.72
2023-05-12T06:09:06.199Z,100939.25
2023-05-12T06:11:33.320Z,100946.94
2023-05-12T06:13:59.818Z,100956.09
2023-05-12T06:16:26.679Z,100953.06
2023-05-12T06:18:53.386Z,100958.38
2023-05-12T06:21:21.142Z,100963.81
2023-05-12T06:23:47.860Z,100959.41
2023-05-12T06:26:14.584Z,100968.56
2023-05-12T06:28:41.187Z,100966.81
2023-05-12T06:31:08.641Z,100966.91
2023-05-12T06:33:35.429Z,100955.72
2023-05-12T06:36:02.164Z,100956.94
2023-05-12T06:38:28.742Z,100960.84
2023-05-12T06:40:55.531Z,100956.81
2023-05-12T06:43:23.300Z,100963.84
2023-05-12T06:45:54.341Z,100961.22
2023-05-12T06:48:20.914Z,100966.81
2023-05-12T06:50:47.444Z,100965.50
2023-05-12T06:53:14.413Z,100976.97
2023-05-12T06:55:43.778Z,100968.84
2023-05-12T06:58:10.297Z,100967.53
2023-05-12T07:00:37.221Z,100976.19
2023-05-12T07:03:04.154Z,100979.59
2023-05-12T07:05:30.983Z,100983.13
2023-05-12T07:07:57.538Z,100980.44
2023-05-12T07:10:24.037Z,100986.47
2023-05-12T07:12:50.628Z,100982.34
2023-05-12T07:15:17.622Z,100984.69
2023-05-12T07:17:44.238Z,100992.19
2023-05-12T07:20:11.261Z,100975.63
2023-05-12T07:22:39.074Z,100981.00
2023-05-12T07:25:07.529Z,100997.34
2023-05-12T07:27:34.299Z,100995.72
2023-05-12T07:30:01.337Z,100988.41
2023-05-12T07:32:28.030Z,100997.91
2023-05-12T07:34:54.572Z,100997.53
2023-05-12T07:37:21.534Z,100989.00
2023-05-12T07:39:48.559Z,100983.94
2023-05-12T07:42:15.639Z,100992.44
2023-05-12T07:44:42.304Z,100991.72
2023-05-12T07:47:09.282Z,100995.59
2023-05-12T07:49:35.837Z,100994.97
2023-05-12T07:52:03.033Z,100990.69
2023-05-12T07:54:29.590Z,100997.78
2023-05-12T07:56:56.143Z,101004.19
2023-05-12T07:59:23.030Z,101003.59
2023-05-12T08:01:49.786Z,100996.06
2023-05-12T08:04:16.419Z,100997.41
2023-05-12T08:06:42.953Z,100994.59
2023-05-12T08:09:09.478Z,101000.16
2023-05-12T08:11:36.263Z,100996.50
2023-05-12T08:14:03.944Z,101000.34
2023-05-12T08:16:30.556Z,100994.81
2023-05-12T08:18:58.649Z,100994.72
2023-05-12T08:21:25.646Z,100995.06
2023-05-12T08:23:52.169Z,101000.91
2023-05-12T08:26:18.768Z,100996.22
2023-05-12T08:28:45.828Z,100999.91
2023-05-12T08:31:12.658Z,100999.63
2023-05-12T08:33:39.723Z,101000.72
2023-05-12T08:36:06.298Z,101002.53
2023-05-12T08:38:33.059Z,101003.66
2023-05-12T08:41:13.212Z,101005.06
2023-05-12T08:43:44.624Z,101009.06
2023-05-12T08:46:14.536Z,100994.47
2023-05-12T08:48:41.369Z,100999.84
2023-05-12T08:51:11.693Z,101005.22
2023-05-12T08:53:40.251Z,101003.38
2023-05-12T08:58:42.079Z,101004.44
2023-05-12T09:01:12.187Z,101007.34
2023-05-12T09:03:39.314Z,100992.75
2023-05-12T09:06:06.744Z,101002.91
2023-05-12T09:08:34.910Z,101003.97
2023-05-12T09:11:02.855Z,101001.41
2023-05-12T09:13:54.789Z,100998.94
2023-05-12T09:16:26.522Z,101002.94
2023-05-12T09:18:55.494Z,101003.88
2023-05-12T09:21:22.643Z,101010.00
2023-05-12T09:23:56.996Z,101024.34
2023-05-12T09:26:25.884Z,101016.63
2023-05-12T09:28:53.877Z,101012.38
2023-05-12T09:31:22.726Z,101022.97
2023-05-12T09:33:50.948Z,101028.22
2023-05-12T09:36:19.657Z,101023.38
2023-05-12T09:38:46.236Z,101015.19
2023-05-12T09:41:13.242Z,101019.91
2023-05-12T09:43:46.363Z,101017.19
2023-05-12T09:46:14.977Z,101017.16
2023-05-12T09:48:41.890Z,101022.47
2023-05-12T09:51:10.760Z,101016.19
2023-05-12T09:53:42.982Z,101024.28
2023-05-12T09:56:11.983Z,101017.97
2023-05-12T09:58:47.172Z,101014.66
2023-05-12T10:01:22.824Z,101011.09
2023-05-12T10:03:57.027Z,101007.59
2023-05-12T10:06:29.986Z,101016.59
2023-05-12T10:09:15.921Z,101017.66
2023-05-12T10:11:44.027Z,101016.38
2023-05-12T10:14:11.252Z,101009.22
2023-05-12T10:16:38.329Z,101014.34
2023-05-12T10:19:05.921Z,101008.38
2023-05-12T10:21:33.472Z,101013.03
2023-05-12T10:24:00.771Z,101015.94
2023-05-12T10:26:28.560Z,101015.97
2023-05-12T10:28:55.420Z,101012.28
2023-05-12T10:31:23.445Z,101009.63
2023-05-12T10:33:57.806Z,101008.69
2023-05-12T10:36:24.706Z,101009.94
2023-05-12T10:38:51.859Z,101001.00
2023-05-12T10:41:29.923Z,101008.50
2023-05-12T10:43:56.648Z,101007.44
2023-05-12T10:46:26.307Z,101003.56
2023-05-12T10:49:10.077Z,101000.69
2023-05-12T10:51:42.975Z,101000.97
2023-05-12T10:54:11.782Z,101013.22
2023-05-12T10:56:38.549Z,101013.47
2023-05-12T10:59:17.240Z,101004.84
2023-05-12T11:02:02.183Z,101009.56
2023-05-12T11:04:43.254Z,101000.69
2023-05-12T11:07:12.633Z,101010.22
2023-05-12T11:09:56.039Z,101001.94
2023-05-12T11:12:28.864Z,101007.66
2023-05-12T11:14:55.530Z,101013.03
2023-05-12T11:17:22.791Z,101002.28
2023-05-12T11:19:50.488Z,101010.56
2023-05-12T11:22:19.987Z,101006.09
2023-05-12T11:24:47.865Z,101000.56
2023-05-12T11:27:17.202Z,101002.94
2023-05-12T11:29:46.947Z,101000.00
2023-05-12T11:32:15.658Z,100999.28
2023-05-12T11:34:42.798Z,100997.31
2023-05-12T11:37:09.348Z,101001.16
2023-05-12T11:39:36.349Z,101002.97
2023-05-12T11:42:12.026Z,101010.47
2023-05-12T11:44:49.621Z,100998.84
2023-05-12T11:47:19.692Z,100998.53
2023-05-12T11:49:51.155Z,101011.44
2023-05-12T11:52:19.749Z,101006.53
2023-05-12T11:54:57.276Z,101015.38
2023-05-12T11:57:38.296Z,101001.28
2023-05-12T12:00:07.070Z,101018.81
2023-05-12T12:02:36.649Z,101015.47
2023-05-12T12:05:03.864Z,101023.78
2023-05-12T12:07:35.435Z,101019.47
2023-05-12T12:10:31.779Z,101013.00
2023-05-12T12:13:00.431Z,101009.19
2023-05-12T12:15:28.056Z,101008.63
2023-05-12T12:17:54.788Z,101016.50
2023-05-12T12:20:21.886Z,101016.56
2023-05-12T12:22:48.470Z,101004.44
2023-05-12T12:25:15.028Z,101009.69
2023-05-12T12:27:42.049Z,101014.91
2023-05-12T12:30:09.572Z,101005.28
2023-05-12T12:32:36.230Z,101013.50
2023-05-12T12:35:06.272Z,101012.41
2023-05-12T12:37:33.067Z,100996.44
2023-05-12T12:40:00.083Z,100998.22
2023-05-12T12:42:26.847Z,100998.06
2023-05-12T12:44:53.695Z,101011.09
2023-05-12T12:47:20.321Z,101004.28
2023-05-12T12:49:47.017Z,101003.66
2023-05-12T12:52:13.548Z,100998.66
2023-05-12T12:54:40.162Z,101009.13
2023-05-12T12:57:07.065Z,101002.81
2023-05-12T12:59:33.694Z,100994.56
2023-05-12T13:02:01.344Z,100999.50
2023-05-12T13:04:27.941Z,100999.22
2023-05-12T13:06:54.486Z,101009.78
2023-05-12T13:09:21.039Z,101014.00
2023-05-12T13:11:47.900Z,101002.78
2023-05-12T13:14:14.555Z,101002.00
2023-05-12T13:16:41.181Z,101000.56
2023-05-12T13:19:08.368Z,100990.53
2023-05-12T13:21:35.030Z,100977.78
2023-05-12T13:24:01.648Z,100984.47
2023-05-12T13:26:28.355Z,100989.41
2023-05-12T13:28:54.901Z,100993.38
2023-05-12T13:31:21.566Z,100993.13
2023-05-12T13:33:48.190Z,100992.50
2023-05-12T13:36:14.757Z,100982.78
2023-05-12T13:38:43.205Z,100990.88
2023-05-12T13:41:09.749Z,100989.41
2023-05-12T13:43:36.382Z,100988.84
2023-05-12T13:46:03.212Z,100974.47
2023-05-12T13:48:29.768Z,100984.50
2023-05-12T13:50:56.454Z,100973.09
2023-05-12T13:53:22.976Z,100975.28
2023-05-12T13:55:49.738Z,100977.28
2023-05-12T13:58:16.408Z,100981.41
2023-05-12T14:00:42.917Z,100979.56
2023-05-12T14:03:10.326Z,100975.16
2023-05-12T14:05:36.901Z,100979.06
2023-05-12T14:08:03.831Z,100972.34
2023-05-12T14:10:32.349Z,100970.88
2023-05-12T14:12:58.916Z,100967.97
2023-05-12T14:15:36.164Z,100971.63
2023-05-12T14:18:11.524Z,100967.50
2023-05-12T14:20:38.135Z,100967.38
2023-05-12T14:23:04.679Z,100967.69
2023-05-12T14:25:31.278Z,100959.44
2023-05-12T14:27:58.678Z,100961.56
2023-05-12T14:30:25.264Z,100966.88
2023-05-12T14:32:53.319Z,100968.28
2023-05-12T14:35:20.253Z,100958.13
2023-05-12T14:37:46.945Z,100972.06
2023-05-12T14:40:14.076Z,100963.28
2023-05-12T14:42:40.678Z,100952.41
2023-05-12T14:45:07.984Z,100968.47
2023-05-12T14:47:34.604Z,100964.06
2023-05-12T14:50:01.149Z,100949.56
2023-05-12T14:52:27.824Z,100956.38
2023-05-12T14:54:54.473Z,100960.22
2023-05-12T14:57:21.654Z,100953.28
2023-05-12T14:59:48.637Z,100972.13
2023-05-12T15:02:15.225Z,100966.06
2023-05-12T15:04:42.125Z,100963.56
2023-05-12T15:07:08.683Z,100975.06
2023-05-12T15:09:35.288Z,100971.53
2023-05-12T15:12:03.825Z,100970.06
2023-05-12T15:14:30.374Z,100977.56
2023-05-12T15:16:57.018Z,100979.00
2023-05-12T15:19:23.633Z,100976.25
2023-05-12T15:21:50.230Z,100976.47
2023-05-12T15:24:17.247Z,100972.31
2023-05-12T15:26:43.839Z,100985.91
2023-05-12T15:29:10.535Z,100972.94
2023-05-12T15:31:37.133Z,100990.31
2023-05-12T15:34:03.790Z,100977.91
2023-05-12T15:36:30.862Z,100973.56
2023-05-12T15:38:57.517Z,100965.41
2023-05-12T15:41:24.083Z,100976.03
2023-05-12T15:43:50.611Z,100974.19
2023-05-12T15:46:17.614Z,100971.13
2023-05-12T15:48:44.519Z,100971.22
2023-05-12T15:51:11.076Z,100966.03
2023-05-12T15:53:37.592Z,100971.53
2023-05-12T15:56:05.164Z,100969.97
2023-05-12T15:58:31.891Z,100970.19
2023-05-12T16:00:59.026Z,100967.69
2023-05-12T16:03:25.810Z,100975.09
2023-05-12T16:05:52.614Z,100980.38
2023-05-12T16:08:20.329Z,100964.66
2023-05-12T16:10:46.937Z,100973.53
2023-05-12T16:13:14.882Z,100977.34
2023-05-12T16:15:41.457Z,100981.72
2023-05-12T16:18:10.855Z,100979.81
2023-05-12T16:20:38.701Z,100974.28
2023-05-12T16:23:05.291Z,100969.53
2023-05-12T16:25:31.872Z,100972.69
2023-05-12T16:27:58.405Z,100964.56
2023-05-12T16:30:25.079Z,100955.25
2023-05-12T16:32:51.695Z,100949.22
2023-05-12T16:35:18.786Z,100959.13
2023-05-12T16:37:45.826Z,100969.63
2023-05-12T16:40:12.562Z,100958.34
2023-05-12T16:42:39.184Z,100959.28
2023-05-12T16:45:06.723Z,100962.72
2023-05-12T16:47:33.330Z,100957.28
2023-05-12T16:50:00.141Z,100962.97
2023-05-12T16:52:27.002Z,100960.78
2023-05-12T16:54:55.989Z,100964.06
2023-05-12T16:57:23.886Z,100972.41
2023-05-12T16:59:51.499Z,100973.75
2023-05-12T17:02:18.601Z,100968.81
2023-05-12T17:04:46.422Z,100972.19
2023-05-12T17:07:13.299Z,100983.84
2023-05-12T17:09:40.582Z,100979.78
2023-05-12T17:12:08.259Z,100983.72
2023-05-12T17:14:34.935Z,100977.34
2023-05-12T17:17:02.204Z,100973.50
2023-05-12T17:19:28.907Z,100986.72
2023-05-12T17:21:55.546Z,100979.00
2023-05-12T17:24:22.351Z,100984.81
2023-05-12T17:26:48.983Z,100990.00
2023-05-12T17:29:16.097Z,100988.97
2023-05-12T17:31:42.918Z,100993.13
2023-05-12T17:34:10.121Z,100983.38
2023-05-12T17:36:37.294Z,100984.97
2023-05-12T17:39:04.496Z,100992.75
2023-05-12T17:41:31.097Z,100984.81
2023-05-12T17:43:57.693Z,100996.13
2023-05-12T17:46:24.450Z,101002.50
2023-05-12T17:48:51.273Z,101012.13
2023-05-12T17:51:18.068Z,101001.94
2023-05-12T17:53:44.840Z,101006.69
2023-05-12T17:56:11.670Z,101011.34
2023-05-12T17:58:38.500Z,101002.16
2023-05-12T18:01:05.437Z,100998.34
2023-05-12T18:03:32.853Z,101006.63
2023-05-12T18:05:59.585Z,101015.13
2023-05-12T18:08:27.103Z,101014.91
2023-05-12T18:10:53.979Z,101013.28
2023-05-12T18:13:20.691Z,101014.38
2023-05-12T18:15:49.630Z,101024.84
2023-05-12T18:18:16.723Z,101017.09
2023-05-12T18:20:43.680Z,101020.38
2023-05-12T18:23:10.522Z,101012.88
2023-05-12T18:25:37.424Z,101013.59
2023-05-12T18:28:06.260Z,101015.13
2023-05-12T18:30:33.329Z,101020.22
2023-05-12T18:33:00.340Z,101016.72
2023-05-12T18:35:27.286Z,100998.72
2023-05-12T18:37:54.445Z,101006.25
2023-05-12T18:40:21.339Z,101006.00
2023-05-12T18:42:48.143Z,101013.66
2023-05-12T18:45:15.582Z,101015.38
2023-05-12T18:47:42.327Z,101019.81
2023-05-12T18:50:09.861Z,101019.47
2023-05-12T18:52:37.042Z,101025.03
2023-05-12T18:55:03.998Z,101021.72
2023-05-12T18:57:31.549Z,101027.19
2023-05-12T18:59:58.439Z,101029.88
2023-05-12T19:02:25.415Z,101034.28
2023-05-12T19:04:52.482Z,101042.41
2023-05-12T19:07:19.674Z,101044.56
2023-05-12T19:09:46.410Z,101054.69
2023-05-12T19:12:13.138Z,101058.81
2023-05-12T19:14:40.702Z,101068.38
2023-05-12T19:17:07.716Z,101066.66
2023-05-12T19:19:34.862Z,101070.03
2023-05-12T19:22:04.064Z,101068.56
2023-05-12T19:24:30.903Z,101069.13
2023-05-12T19:26:57.612Z,101082.22
2023-05-12T19:29:24.800Z,101079.50
2023-05-12T19:31:53.161Z,101076.78
2023-05-12T19:34:20.072Z,101077.34
2023-05-12T19:36:46.914Z,101083.63
2023-05-12T19:39:13.914Z,101090.25
2023-05-12T19:41:41.078Z,101084.25
2023-05-12T19:44:07.899Z,101085.22
2023-05-12T19:46:34.669Z,101086.13
2023-05-12T19:49:02.454Z,101093.00
2023-05-12T19:51:29.584Z,101084.53
2023-05-12T19:53:56.329Z,101084.91
2023-05-12T19:56:23.215Z,101084.13
2023-05-12T19:58:50.423Z,101093.97
2023-05-12T20:01:17.368Z,101095.91
2023-05-12T20:03:44.154Z,101086.00
2023-05-12T20:06:11.052Z,101099.66
2023-05-12T20:08:37.976Z,101097.97
2023-05-12T20:11:04.691Z,101101.03
2023-05-12T20:13:31.667Z,101101.19
2023-05-12T20:15:59.549Z,101104.88
2023-05-12T20:18:27.519Z,101103.09
2023-05-12T20:20:55.607Z,101110.47
2023-05-12T20:23:22.741Z,101105.72
2023-05-12T20:25:49.490Z,101111.00
2023-05-12T20:28:16.292Z,101111.78
2023-05-12T20:30:43.254Z,101112.59
2023-05-12T20:33:10.039Z,101103.78
2023-05-12T20:35:36.910Z,101106.22
2023-05-12T20:38:03.577Z,101113.47
2023-05-12T20:40:30.280Z,101114.22
2023-05-12T20:42:57.168Z,101109.38
2023-05-12T20:45:24.218Z,101116.69
2023-05-12T20:47:51.129Z,101116.63
2023-05-12T20:50:17.853Z,101120.22
2023-05-12T20:52:47.187Z,101120.84
2023-05-12T20:55:13.840Z,101121.06
2023-05-12T20:57:41.681Z,101123.28
2023-05-12T21:00:13.467Z,101125.50
2023-05-12T21:02:40.110Z,101133.06
2023-05-12T21:05:07.355Z,101133.50
2023-05-12T21:07:33.949Z,101133.63
2023-05-12T21:10:00.884Z,101137.69
2023-05-12T21:12:27.606Z,101132.88
2023-05-12T21:14:54.122Z,101140.13
2023-05-12T21:17:21.413Z,101124.63
2023-05-12T21:19:47.991Z,101131.94
2023-05-12T21:22:15.717Z,101137.97
2023-05-12T21:24:42.886Z,101130.91
2023-05-12T21:27:09.446Z,101134.94
2023-05-12T21:29:37.085Z,101142.94
2023-05-12T21:32:04.141Z,101131.91
2023-05-12T21:34:33.472Z,101133.88
2023-05-12T21:37:00.732Z,101142.19
2023-05-12T21:39:27.921Z,101143.19
2023-05-12T21:41:54.960Z,101142.78
2023-05-12T21:44:21.660Z,101140.66
2023-05-12T21:46:48.317Z,101142.53
2023-05-12T21:49:14.930Z,101149.69
2023-05-12T21:51:41.952Z,101147.84
2023-05-12T21:54:08.839Z,101146.88
2023-05-12T21:56:35.432Z,101147.94
2023-05-12T21:59:01.992Z,101149.41
2023-05-12T22:01:29.672Z,101147.66
2023-05-12T22:03:59.385Z,101145.84
2023-05-12T22:06:26.123Z,101151.50
2023-05-12T22:08:53.927Z,101150.91
2023-05-12T22:11:21.495Z,101149.81
2023-05-12T22:13:48.140Z,101151.59
2023-05-12T22:16:15.514Z,101152.34
2023-05-12T22:18:45.597Z,101152.00
2023-05-12T22:21:12.715Z,101158.03
2023-05-12T22:23:39.731Z,101157.78
2023-05-12T22:26:06.678Z,101158.91
2023-05-12T22:28:33.305Z,101157.16
2023-05-12T22:31:00.207Z,101159.97
2023-05-12T22:33:26.954Z,101155.13
2023-05-12T22:35:53.535Z,101158.63
2023-05-12T22:38:20.141Z,101166.78
2023-05-12T22:40:46.974Z,101175.69
2023-05-12T22:43:13.746Z,101162.97
2023-05-12T22:45:40.483Z,101169.00
2023-05-12T22:48:07.482Z,101167.78
2023-05-12T22:50:34.063Z,101167.69
2023-05-12T22:53:01.079Z,101167.13
2023-05-12T22:55:30.736Z,101165.53
2023-05-12T22:57:58.037Z,101160.22
2023-05-12T23:00:24.577Z,101176.47
2023-05-12T23:02:51.803Z,101165.63
2023-05-12T23:05:18.950Z,101164.22
2023-05-12T23:07:45.572Z,101169.69
2023-05-12T23:10:12.235Z,101166.94
2023-05-12T23:12:39.477Z,101160.63
2023-05-12T23:15:07.597Z,101168.47
2023-05-12T23:17:34.224Z,101159.66
2023-05-12T23:20:00.902Z,101161.16
2023-05-12T23:22:27.515Z,101159.59
2023-05-12T23:24:55.372Z,101162.81
2023-05-12T23:27:21.958Z,101157.91
2023-05-12T23:29:48.584Z,101163.41
2023-05-12T23:32:15.321Z,101164.34
2023-05-12T23:34:42.721Z,101169.78
2023-05-12T23:37:09.541Z,101168.78
2023-05-12T23:39:36.110Z,101165.78
2023-05-12T23:42:03.734Z,101164.22
2023-05-12T23:44:30.457Z,101163.69
2023-05-12T23:46:57.070Z,101172.66
2023-05-12T23:49:23.892Z,101156.53
2023-05-12T23:51:50.906Z,101164.44
2023-05-12T23:54:17.439Z,101162.09
2023-05-12T23:56:44.065Z,101152.56
2023-05-12T23:59:10.617Z,101150.94
